createdAt,value
2023-01-29T00:01:08.193Z,-1.54
2023-01-29T00:01:12.940Z,-1.58
2023-01-29T00:02:12.971Z,-1.61
2023-01-29T00:03:12.981Z,-1.62
2023-01-29T00:04:12.910Z,-1.62
2023-01-29T00:05:26.984Z,-1.62
2023-01-29T00:06:13.881Z,-1.67
2023-01-29T00:07:12.884Z,-1.69
2023-01-29T00:08:12.869Z,-1.73
2023-01-29T00:09:12.852Z,-1.80
2023-01-29T00:10:12.850Z,-1.83
2023-01-29T00:11:12.820Z,-1.85
2023-01-29T00:12:12.854Z,-1.86
2023-01-29T00:13:12.805Z,-1.90
2023-01-29T00:14:12.812Z,-1.90
2023-01-29T00:15:12.775Z,-1.90
2023-01-29T00:16:12.775Z,-1.90
2023-01-29T00:17:12.834Z,-1.91
2023-01-29T00:18:12.742Z,-1.88
2023-01-29T00:19:12.714Z,-1.88
2023-01-29T00:20:12.716Z,-1.88
2023-01-29T00:21:12.709Z,-1.88
2023-01-29T00:22:12.694Z,-1.90
2023-01-29T00:23:12.686Z,-1.90
2023-01-29T00:24:12.695Z,-1.91
2023-01-29T00:25:12.646Z,-1.93
2023-01-29T00:26:12.638Z,-1.96
2023-01-29T00:27:12.635Z,-1.98
2023-01-29T00:28:13.101Z,-2.03
2023-01-29T00:29:12.594Z,-2.08
2023-01-29T00:30:12.586Z,-2.09
2023-01-29T00:31:12.673Z,-2.14
2023-01-29T00:32:12.699Z,-2.15
2023-01-29T00:33:12.544Z,-2.15
2023-01-29T00:34:12.551Z,-2.16
2023-01-29T00:35:12.510Z,-2.21
2023-01-29T00:36:12.525Z,-2.21
2023-01-29T00:37:12.754Z,-2.24
2023-01-29T00:38:12.477Z,-2.24
2023-01-29T00:39:12.475Z,-2.21
2023-01-29T00:40:12.459Z,-2.21
2023-01-29T00:41:12.444Z,-2.22
2023-01-29T00:42:12.440Z,-2.24
2023-01-29T00:43:12.435Z,-2.24
2023-01-29T00:44:12.407Z,-2.24
2023-01-29T00:45:12.396Z,-2.27
2023-01-29T00:46:12.407Z,-2.29
2023-01-29T00:47:12.385Z,-2.30
2023-01-29T00:48:12.353Z,-2.29
2023-01-29T00:49:12.346Z,-2.33
2023-01-29T00:50:12.344Z,-2.34
2023-01-29T00:51:12.338Z,-2.38
2023-01-29T00:52:12.335Z,-2.38
2023-01-29T00:53:12.313Z,-2.38
2023-01-29T00:54:12.293Z,-2.38
2023-01-29T00:55:12.286Z,-2.38
2023-01-29T00:56:12.258Z,-2.40
2023-01-29T00:57:12.293Z,-2.38
2023-01-29T00:58:12.227Z,-2.38
2023-01-29T00:59:12.228Z,-2.40
2023-01-29T01:00:12.220Z,-2.37
2023-01-29T01:01:12.210Z,-2.38
2023-01-29T01:02:12.230Z,-2.43
2023-01-29T01:03:12.190Z,-2.43
2023-01-29T01:04:12.413Z,-2.45
2023-01-29T01:05:12.152Z,-2.46
2023-01-29T01:06:12.138Z,-2.48
2023-01-29T01:07:17.371Z,-2.48
2023-01-29T01:08:12.118Z,-2.48
2023-01-29T01:09:12.090Z,-2.48
2023-01-29T01:10:12.108Z,-2.49
2023-01-29T01:11:12.068Z,-2.51
2023-01-29T01:12:12.118Z,-2.51
2023-01-29T01:13:12.042Z,-2.55
2023-01-29T01:14:12.062Z,-2.54
2023-01-29T01:15:12.023Z,-2.56
2023-01-29T01:16:12.290Z,-2.56
2023-01-29T01:17:12.012Z,-2.58
2023-01-29T01:18:11.981Z,-2.58
2023-01-29T01:19:11.975Z,-2.59
2023-01-29T01:20:12.220Z,-2.61
2023-01-29T01:21:11.949Z,-2.64
2023-01-29T01:22:11.956Z,-2.64
2023-01-29T01:23:11.922Z,-2.67
2023-01-29T01:24:11.933Z,-2.72
2023-01-29T01:25:11.902Z,-2.72
2023-01-29T01:26:11.906Z,-2.70
2023-01-29T01:27:11.892Z,-2.70
2023-01-29T01:28:11.879Z,-2.69
2023-01-29T01:29:11.845Z,-2.69
2023-01-29T01:30:11.833Z,-2.70
2023-01-29T01:31:11.890Z,-2.70
2023-01-29T01:32:11.840Z,-2.70
2023-01-29T01:33:11.802Z,-2.79
2023-01-29T01:34:11.793Z,-2.77
2023-01-29T01:35:11.770Z,-2.79
2023-01-29T01:36:11.768Z,-2.79
2023-01-29T01:37:11.777Z,-2.80
2023-01-29T01:38:11.746Z,-2.80
2023-01-29T01:39:11.722Z,-2.77
2023-01-29T01:40:11.719Z,-2.77
2023-01-29T01:41:11.935Z,-2.76
2023-01-29T01:42:11.717Z,-2.73
2023-01-29T01:43:11.673Z,-2.73
2023-01-29T01:44:11.663Z,-2.70
2023-01-29T01:45:11.874Z,-2.72
2023-01-29T01:46:11.699Z,-2.72
2023-01-29T01:47:11.623Z,-2.69
2023-01-29T01:48:11.632Z,-2.69
2023-01-29T01:49:11.608Z,-2.70
2023-01-29T01:50:11.597Z,-2.70
2023-01-29T01:51:11.591Z,-2.67
2023-01-29T01:52:11.573Z,-2.64
2023-01-29T01:53:11.799Z,-2.61
2023-01-29T01:54:11.534Z,-2.59
2023-01-29T01:55:11.535Z,-2.59
2023-01-29T01:56:11.522Z,-2.61
2023-01-29T01:57:11.516Z,-2.61
2023-01-29T01:58:11.500Z,-2.64
2023-01-29T01:59:11.494Z,-2.61
2023-01-29T02:00:11.589Z,-2.59
2023-01-29T02:01:11.505Z,-2.59
2023-01-29T02:02:11.503Z,-2.59
2023-01-29T02:03:11.429Z,-2.59
2023-01-29T02:04:11.421Z,-2.61
2023-01-29T02:05:11.398Z,-2.61
2023-01-29T02:06:11.416Z,-2.61
2023-01-29T02:07:11.397Z,-2.64
2023-01-29T02:08:11.378Z,-2.64
2023-01-29T02:09:11.360Z,-2.63
2023-01-29T02:10:12.156Z,-2.67
2023-01-29T02:11:11.350Z,-2.67
2023-01-29T02:12:11.338Z,-2.69
2023-01-29T02:13:11.320Z,-2.70
2023-01-29T02:14:11.315Z,-2.72
2023-01-29T02:15:11.282Z,-2.70
2023-01-29T02:16:11.267Z,-2.73
2023-01-29T02:17:11.278Z,-2.76
2023-01-29T02:18:11.251Z,-2.76
2023-01-29T02:19:11.235Z,-2.79
2023-01-29T02:20:11.228Z,-2.80
2023-01-29T02:21:11.228Z,-2.80
2023-01-29T02:22:11.209Z,-2.79
2023-01-29T02:23:11.179Z,-2.80
2023-01-29T02:24:11.272Z,-2.80
2023-01-29T02:25:11.157Z,-2.79
2023-01-29T02:26:11.376Z,-2.80
2023-01-29T02:27:11.165Z,-2.80
2023-01-29T02:28:11.117Z,-2.82
2023-01-29T02:29:11.113Z,-2.82
2023-01-29T02:30:11.113Z,-2.80
2023-01-29T02:31:11.119Z,-2.80
2023-01-29T02:32:11.068Z,-2.84
2023-01-29T02:33:11.091Z,-2.85
2023-01-29T02:34:11.034Z,-2.82
2023-01-29T02:35:11.031Z,-2.80
2023-01-29T02:36:11.008Z,-2.82
2023-01-29T02:37:11.029Z,-2.84
2023-01-29T02:38:11.227Z,-2.82
2023-01-29T02:39:10.988Z,-2.84
2023-01-29T02:40:10.958Z,-2.85
2023-01-29T02:41:10.965Z,-2.85
2023-01-29T02:42:10.948Z,-2.84
2023-01-29T02:43:10.938Z,-2.85
2023-01-29T02:44:10.908Z,-2.84
2023-01-29T02:45:10.921Z,-2.85
2023-01-29T02:46:10.955Z,-2.82
2023-01-29T02:47:10.893Z,-2.80
2023-01-29T02:48:10.877Z,-2.77
2023-01-29T02:49:10.863Z,-2.77
2023-01-29T02:50:10.852Z,-2.74
2023-01-29T02:51:10.833Z,-2.74
2023-01-29T02:52:10.852Z,-2.74
2023-01-29T02:53:10.809Z,-2.73
2023-01-29T02:54:10.799Z,-2.73
2023-01-29T02:55:10.799Z,-2.73
2023-01-29T02:56:10.762Z,-2.74
2023-01-29T02:57:10.785Z,-2.73
2023-01-29T02:58:10.740Z,-2.72
2023-01-29T02:59:10.732Z,-2.72
2023-01-29T03:00:10.718Z,-2.70
2023-01-29T03:01:10.755Z,-2.67
2023-01-29T03:02:10.715Z,-2.69
2023-01-29T03:03:10.683Z,-2.64
2023-01-29T03:04:10.689Z,-2.64
2023-01-29T03:05:10.664Z,-2.63
2023-01-29T03:06:10.651Z,-2.61
2023-01-29T03:07:10.665Z,-2.58
2023-01-29T03:08:10.632Z,-2.58
2023-01-29T03:09:10.613Z,-2.58
2023-01-29T03:10:10.592Z,-2.58
2023-01-29T03:11:10.581Z,-2.58
2023-01-29T03:12:10.600Z,-2.59
2023-01-29T03:13:10.571Z,-2.63
2023-01-29T03:14:10.555Z,-2.59
2023-01-29T03:15:10.531Z,-2.63
2023-01-29T03:16:10.547Z,-2.61
2023-01-29T03:17:10.511Z,-2.61
2023-01-29T03:18:10.501Z,-2.61
2023-01-29T03:19:10.487Z,-2.63
2023-01-29T03:20:10.471Z,-2.61
2023-01-29T03:21:10.455Z,-2.61
2023-01-29T03:22:10.459Z,-2.59
2023-01-29T03:23:10.456Z,-2.59
2023-01-29T03:24:10.434Z,-2.58
2023-01-29T03:25:10.425Z,-2.56
2023-01-29T03:26:10.434Z,-2.59
2023-01-29T03:27:10.413Z,-2.59
2023-01-29T03:28:10.377Z,-2.59
2023-01-29T03:29:10.362Z,-2.59
2023-01-29T03:30:10.343Z,-2.59
2023-01-29T03:31:10.594Z,-2.63
2023-01-29T03:32:10.360Z,-2.59
2023-01-29T03:33:10.318Z,-2.56
2023-01-29T03:34:10.300Z,-2.56
2023-01-29T03:35:10.291Z,-2.56
2023-01-29T03:36:10.263Z,-2.61
2023-01-29T03:37:10.274Z,-2.59
2023-01-29T03:38:10.253Z,-2.64
2023-01-29T03:39:10.244Z,-2.64
2023-01-29T03:40:10.214Z,-2.66
2023-01-29T03:41:10.224Z,-2.66
2023-01-29T03:42:10.207Z,-2.69
2023-01-29T03:43:10.203Z,-2.67
2023-01-29T03:44:10.179Z,-2.70
2023-01-29T03:45:10.178Z,-2.72
2023-01-29T03:46:10.219Z,-2.69
2023-01-29T03:47:10.163Z,-2.70
2023-01-29T03:48:11.074Z,-2.69
2023-01-29T03:49:10.126Z,-2.70
2023-01-29T03:50:10.096Z,-2.73
2023-01-29T03:51:10.094Z,-2.76
2023-01-29T03:52:10.089Z,-2.76
2023-01-29T03:53:10.067Z,-2.77
2023-01-29T03:54:10.048Z,-2.77
2023-01-29T03:55:10.036Z,-2.79
2023-01-29T03:56:10.022Z,-2.79
2023-01-29T03:57:10.020Z,-2.80
2023-01-29T03:58:10.000Z,-2.82
2023-01-29T03:59:10.017Z,-2.82
2023-01-29T04:00:09.988Z,-2.80
2023-01-29T04:01:09.999Z,-2.82
2023-01-29T04:02:09.984Z,-2.82
2023-01-29T04:03:10.914Z,-2.84
2023-01-29T04:04:09.950Z,-2.87
2023-01-29T04:05:09.916Z,-2.87
2023-01-29T04:06:10.055Z,-2.85
2023-01-29T04:07:09.917Z,-2.87
2023-01-29T04:08:09.876Z,-2.88
2023-01-29T04:09:09.867Z,-2.87
2023-01-29T04:10:09.855Z,-2.85
2023-01-29T04:11:09.867Z,-2.82
2023-01-29T04:12:09.855Z,-2.80
2023-01-29T04:13:09.813Z,-2.80
2023-01-29T04:14:09.829Z,-2.82
2023-01-29T04:15:10.750Z,-2.80
2023-01-29T04:16:09.844Z,-2.79
2023-01-29T04:17:09.788Z,-2.82
2023-01-29T04:18:09.758Z,-2.85
2023-01-29T04:19:09.753Z,-2.87
2023-01-29T04:20:09.726Z,-2.90
2023-01-29T04:21:09.716Z,-2.90
2023-01-29T04:22:09.718Z,-2.91
2023-01-29T04:23:09.711Z,-2.91
2023-01-29T04:24:09.702Z,-2.90
2023-01-29T04:25:09.696Z,-2.92
2023-01-29T04:26:09.666Z,-2.92
2023-01-29T04:27:09.658Z,-2.94
2023-01-29T04:28:10.585Z,-2.97
2023-01-29T04:29:09.618Z,-2.97
2023-01-29T04:30:09.611Z,-2.97
2023-01-29T04:31:09.634Z,-2.98
2023-01-29T04:32:09.659Z,-2.94
2023-01-29T04:33:09.561Z,-2.95
2023-01-29T04:34:09.569Z,-2.94
2023-01-29T04:35:09.539Z,-2.97
2023-01-29T04:36:09.526Z,-2.98
2023-01-29T04:37:09.542Z,-3.01
2023-01-29T04:38:09.510Z,-2.98
2023-01-29T04:39:11.117Z,-2.98
2023-01-29T04:40:10.439Z,-3.01
2023-01-29T04:41:09.479Z,-3.02
2023-01-29T04:42:09.466Z,-3.02
2023-01-29T04:43:10.392Z,-3.02
2023-01-29T04:44:09.423Z,-3.01
2023-01-29T04:45:09.418Z,-3.01
2023-01-29T04:46:09.402Z,-2.97
2023-01-29T04:47:09.779Z,-2.98
2023-01-29T04:48:09.384Z,-3.03
2023-01-29T04:49:09.373Z,-3.03
2023-01-29T04:50:09.350Z,-3.05
2023-01-29T04:51:09.350Z,-3.06
2023-01-29T04:52:09.388Z,-3.05
2023-01-29T04:53:09.321Z,-3.03
2023-01-29T04:54:09.291Z,-3.05
2023-01-29T04:55:09.299Z,-3.08
2023-01-29T04:56:09.284Z,-3.08
2023-01-29T04:57:09.276Z,-3.08
2023-01-29T04:58:09.263Z,-3.08
2023-01-29T04:59:09.243Z,-3.06
2023-01-29T05:00:09.227Z,-3.08
2023-01-29T05:01:09.219Z,-3.05
2023-01-29T05:02:09.213Z,-3.05
2023-01-29T05:03:09.202Z,-3.01
2023-01-29T05:04:09.188Z,-3.02
2023-01-29T05:05:09.522Z,-2.98
2023-01-29T05:06:09.163Z,-3.01
2023-01-29T05:07:09.177Z,-2.98
2023-01-29T05:08:09.156Z,-2.98
2023-01-29T05:09:09.365Z,-3.01
2023-01-29T05:10:09.118Z,-2.98
2023-01-29T05:11:09.094Z,-2.97
2023-01-29T05:12:09.110Z,-2.98
2023-01-29T05:13:09.067Z,-2.94
2023-01-29T05:14:09.054Z,-2.91
2023-01-29T05:15:09.038Z,-2.94
2023-01-29T05:16:09.080Z,-2.95
2023-01-29T05:17:09.023Z,-2.95
2023-01-29T05:18:09.009Z,-2.94
2023-01-29T05:19:09.001Z,-2.92
2023-01-29T05:20:08.972Z,-2.94
2023-01-29T05:21:08.978Z,-2.92
2023-01-29T05:22:08.971Z,-2.88
2023-01-29T05:23:08.954Z,-2.88
2023-01-29T05:24:08.987Z,-2.85
2023-01-29T05:25:08.924Z,-2.82
2023-01-29T05:26:08.908Z,-2.84
2023-01-29T05:27:08.893Z,-2.82
2023-01-29T05:28:08.882Z,-2.77
2023-01-29T05:29:08.871Z,-2.74
2023-01-29T05:30:08.846Z,-2.70
2023-01-29T05:31:08.894Z,-2.69
2023-01-29T05:32:08.852Z,-2.66
2023-01-29T05:33:10.317Z,-2.61
2023-01-29T05:34:08.825Z,-2.59
2023-01-29T05:35:08.796Z,-2.59
2023-01-29T05:36:08.777Z,-2.56
2023-01-29T05:37:09.051Z,-2.55
2023-01-29T05:38:08.754Z,-2.55
2023-01-29T05:39:08.746Z,-2.58
2023-01-29T05:40:08.737Z,-2.55
2023-01-29T05:41:08.726Z,-2.55
2023-01-29T05:42:08.706Z,-2.54
2023-01-29T05:43:08.692Z,-2.51
2023-01-29T05:44:08.677Z,-2.48
2023-01-29T05:45:08.719Z,-2.48
2023-01-29T05:46:08.653Z,-2.46
2023-01-29T05:47:08.644Z,-2.46
2023-01-29T05:48:08.630Z,-2.43
2023-01-29T05:49:08.621Z,-2.43
2023-01-29T05:50:08.606Z,-2.40
2023-01-29T05:51:08.588Z,-2.41
2023-01-29T05:52:08.601Z,-2.40
2023-01-29T05:53:08.580Z,-2.40
2023-01-29T05:54:09.919Z,-2.38
2023-01-29T05:55:16.990Z,-2.34
2023-01-29T06:01:04.321Z,-2.34
2023-01-29T06:01:09.091Z,-2.30
2023-01-29T06:02:09.388Z,-2.27
2023-01-29T06:03:09.083Z,-2.29
2023-01-29T06:04:09.050Z,-2.29
2023-01-29T06:05:09.054Z,-2.30
2023-01-29T06:06:09.044Z,-2.34
2023-01-29T06:07:09.023Z,-2.30
2023-01-29T06:08:09.022Z,-2.35
2023-01-29T06:09:08.999Z,-2.34
2023-01-29T06:10:08.980Z,-2.34
2023-01-29T06:11:08.970Z,-2.29
2023-01-29T06:12:08.970Z,-2.27
2023-01-29T06:13:08.976Z,-2.27
2023-01-29T06:14:08.937Z,-2.29
2023-01-29T06:15:08.916Z,-2.30
2023-01-29T06:16:08.935Z,-2.27
2023-01-29T06:17:08.899Z,-2.26
2023-01-29T06:18:08.889Z,-2.27
2023-01-29T06:19:08.874Z,-2.22
2023-01-29T06:20:08.853Z,-2.21
2023-01-29T06:21:08.841Z,-2.18
2023-01-29T06:22:08.857Z,-2.19
2023-01-29T06:23:08.818Z,-2.21
2023-01-29T06:24:08.833Z,-2.21
2023-01-29T06:25:08.791Z,-2.22
2023-01-29T06:26:08.793Z,-2.22
2023-01-29T06:27:08.783Z,-2.21
2023-01-29T06:28:08.766Z,-2.19
2023-01-29T06:29:08.743Z,-2.21
2023-01-29T06:30:08.735Z,-2.18
2023-01-29T06:31:26.545Z,-2.16
2023-01-29T06:32:09.796Z,-2.15
2023-01-29T06:33:08.683Z,-2.16
2023-01-29T06:34:08.714Z,-2.15
2023-01-29T06:35:08.663Z,-2.12
2023-01-29T06:36:08.659Z,-2.11
2023-01-29T06:37:08.657Z,-2.12
2023-01-29T06:38:08.863Z,-2.11
2023-01-29T06:39:08.615Z,-2.11
2023-01-29T06:40:08.613Z,-2.09
2023-01-29T06:41:08.588Z,-2.09
2023-01-29T06:42:08.593Z,-2.11
2023-01-29T06:43:08.561Z,-2.14
2023-01-29T06:44:08.553Z,-2.15
2023-01-29T06:45:08.543Z,-2.14
2023-01-29T06:46:08.535Z,-2.16
2023-01-29T06:47:08.530Z,-2.16
2023-01-29T06:48:08.507Z,-2.16
2023-01-29T06:49:08.485Z,-2.15
2023-01-29T06:50:08.479Z,-2.15
2023-01-29T06:51:08.475Z,-2.15
2023-01-29T06:52:08.481Z,-2.18
2023-01-29T06:53:08.434Z,-2.19
2023-01-29T06:54:08.429Z,-2.19
2023-01-29T06:55:08.424Z,-2.21
2023-01-29T06:56:08.405Z,-2.22
2023-01-29T06:57:08.395Z,-2.22
2023-01-29T06:58:08.395Z,-2.19
2023-01-29T06:59:08.379Z,-2.19
2023-01-29T07:00:08.355Z,-2.16
2023-01-29T07:01:08.394Z,-2.16
2023-01-29T07:02:08.390Z,-2.15
2023-01-29T07:03:08.327Z,-2.12
2023-01-29T07:04:08.330Z,-2.15
2023-01-29T07:05:08.296Z,-2.14
2023-01-29T07:06:08.285Z,-2.14
2023-01-29T07:07:08.280Z,-2.12
2023-01-29T07:08:08.251Z,-2.15
2023-01-29T07:09:08.240Z,-2.12
2023-01-29T07:10:08.237Z,-2.09
2023-01-29T07:11:08.451Z,-2.09
2023-01-29T07:12:08.223Z,-2.09
2023-01-29T07:13:08.192Z,-2.11
2023-01-29T07:14:08.176Z,-2.11
2023-01-29T07:15:08.173Z,-2.09
2023-01-29T07:16:08.212Z,-2.08
2023-01-29T07:17:08.164Z,-2.04
2023-01-29T07:18:08.138Z,-2.00
2023-01-29T07:19:08.118Z,-1.98
2023-01-29T07:20:08.122Z,-1.97
2023-01-29T07:21:08.089Z,-1.94
2023-01-29T07:22:08.101Z,-1.94
2023-01-29T07:23:08.082Z,-1.91
2023-01-29T07:24:08.092Z,-1.90
2023-01-29T07:25:08.048Z,-1.86
2023-01-29T07:26:08.043Z,-1.85
2023-01-29T07:27:08.032Z,-1.82
2023-01-29T07:28:08.007Z,-1.82
2023-01-29T07:29:07.998Z,-1.82
2023-01-29T07:30:07.994Z,-1.83
2023-01-29T07:31:08.069Z,-1.86
2023-01-29T07:32:08.055Z,-1.85
2023-01-29T07:33:07.955Z,-1.83
2023-01-29T07:34:07.983Z,-1.85
2023-01-29T07:35:07.917Z,-1.88
2023-01-29T07:36:07.923Z,-1.85
2023-01-29T07:37:07.922Z,-1.85
2023-01-29T07:38:07.893Z,-1.86
2023-01-29T07:39:07.883Z,-1.80
2023-01-29T07:40:08.686Z,-1.76
2023-01-29T07:41:07.880Z,-1.67
2023-01-29T07:42:07.840Z,-1.64
2023-01-29T07:43:07.847Z,-1.64
2023-01-29T07:44:07.807Z,-1.61
2023-01-29T07:45:07.809Z,-1.64
2023-01-29T07:46:07.822Z,-1.62
2023-01-29T07:47:07.782Z,-1.61
2023-01-29T07:48:07.757Z,-1.59
2023-01-29T07:49:07.760Z,-1.58
2023-01-29T07:50:07.743Z,-1.58
2023-01-29T07:51:07.719Z,-1.55
2023-01-29T07:52:07.714Z,-1.52
2023-01-29T07:53:09.191Z,-1.52
2023-01-29T07:54:07.685Z,-1.49
2023-01-29T07:55:07.663Z,-1.49
2023-01-29T07:56:08.054Z,-1.55
2023-01-29T07:57:07.656Z,-1.54
2023-01-29T07:58:07.636Z,-1.57
2023-01-29T07:59:07.624Z,-1.58
2023-01-29T08:00:07.632Z,-1.54
2023-01-29T08:01:07.646Z,-1.52
2023-01-29T08:02:07.678Z,-1.49
2023-01-29T08:03:07.579Z,-1.49
2023-01-29T08:04:07.575Z,-1.44
2023-01-29T08:05:07.542Z,-1.43
2023-01-29T08:06:07.552Z,-1.41
2023-01-29T08:07:07.529Z,-1.41
2023-01-29T08:08:08.077Z,-1.44
2023-01-29T08:09:07.503Z,-1.41
2023-01-29T08:10:07.492Z,-1.40
2023-01-29T08:11:07.484Z,-1.37
2023-01-29T08:12:07.505Z,-1.34
2023-01-29T08:13:07.465Z,-1.26
2023-01-29T08:14:07.442Z,-1.28
2023-01-29T08:15:07.693Z,-1.23
2023-01-29T08:16:07.500Z,-1.31
2023-01-29T08:17:07.413Z,-1.31
2023-01-29T08:18:07.719Z,-1.33
2023-01-29T08:19:07.385Z,-1.34
2023-01-29T08:20:07.392Z,-1.33
2023-01-29T08:21:07.347Z,-1.31
2023-01-29T08:22:07.367Z,-1.33
2023-01-29T08:23:07.341Z,-1.29
2023-01-29T08:24:07.340Z,-1.33
2023-01-29T08:25:21.097Z,-1.34
2023-01-29T08:26:08.319Z,-1.31
2023-01-29T08:27:07.290Z,-1.31
2023-01-29T08:28:07.268Z,-1.31
2023-01-29T08:29:07.251Z,-1.31
2023-01-29T08:30:07.235Z,-1.34
2023-01-29T08:31:07.268Z,-1.31
2023-01-29T08:32:07.234Z,-1.22
2023-01-29T08:33:07.188Z,-1.16
2023-01-29T08:34:07.206Z,-1.05
2023-01-29T08:35:07.173Z,-1.07
2023-01-29T08:36:07.168Z,-1.05
2023-01-29T08:37:07.186Z,-1.01
2023-01-29T08:38:07.149Z,-0.95
2023-01-29T08:39:07.126Z,-0.89
2023-01-29T08:40:07.117Z,-0.86
2023-01-29T08:41:07.100Z,-0.84
2023-01-29T08:42:07.130Z,-0.82
2023-01-29T08:43:09.004Z,-0.79
2023-01-29T08:44:07.068Z,-0.84
2023-01-29T08:45:07.049Z,-0.85
2023-01-29T08:46:07.086Z,-0.85
2023-01-29T08:47:07.038Z,-0.85
2023-01-29T08:48:07.046Z,-0.89
2023-01-29T08:49:07.000Z,-0.84
2023-01-29T08:50:07.010Z,-0.78
2023-01-29T08:51:06.970Z,-0.76
2023-01-29T08:52:06.978Z,-0.75
2023-01-29T08:53:06.959Z,-0.78
2023-01-29T08:54:06.939Z,-0.75
2023-01-29T08:55:06.930Z,-0.70
2023-01-29T08:56:06.910Z,-0.73
2023-01-29T08:57:06.898Z,-0.73
2023-01-29T08:58:06.895Z,-0.70
2023-01-29T08:59:06.871Z,-0.67
2023-01-29T09:00:06.875Z,-0.61
2023-01-29T09:01:06.917Z,-0.61
2023-01-29T09:02:06.882Z,-0.61
2023-01-29T09:03:06.817Z,-0.61
2023-01-29T09:04:06.829Z,-0.61
2023-01-29T09:05:06.799Z,-0.63
2023-01-29T09:06:06.800Z,-0.64
2023-01-29T09:07:06.777Z,-0.67
2023-01-29T09:08:06.764Z,-0.64
2023-01-29T09:09:06.748Z,-0.67
2023-01-29T09:10:06.741Z,-0.61
2023-01-29T09:11:06.725Z,-0.64
2023-01-29T09:12:06.732Z,-0.63
2023-01-29T09:13:06.704Z,-0.58
2023-01-29T09:14:06.686Z,-0.55
2023-01-29T09:15:06.684Z,-0.55
2023-01-29T09:16:06.680Z,-0.58
2023-01-29T09:17:06.663Z,-0.60
2023-01-29T09:18:06.654Z,-0.55
2023-01-29T09:19:06.629Z,-0.52
2023-01-29T09:20:06.601Z,-0.55
2023-01-29T09:21:06.607Z,-0.55
2023-01-29T09:22:06.611Z,-0.64
2023-01-29T09:23:06.574Z,-0.61
2023-01-29T09:24:06.562Z,-0.58
2023-01-29T09:25:06.864Z,-0.58
2023-01-29T09:26:06.533Z,-0.53
2023-01-29T09:27:06.568Z,-0.47
2023-01-29T09:28:06.516Z,-0.43
2023-01-29T09:29:06.540Z,-0.53
2023-01-29T09:30:06.492Z,-0.50
2023-01-29T09:31:06.627Z,-0.49
2023-01-29T09:32:07.030Z,-0.43
2023-01-29T09:33:06.476Z,-0.39
2023-01-29T09:34:06.443Z,-0.38
2023-01-29T09:35:06.439Z,-0.39
2023-01-29T09:36:06.418Z,-0.38
2023-01-29T09:37:06.424Z,-0.29
2023-01-29T09:38:06.404Z,-0.27
2023-01-29T09:39:06.390Z,-0.22
2023-01-29T09:40:06.372Z,-0.20
2023-01-29T09:41:06.356Z,-0.21
2023-01-29T09:42:06.346Z,-0.21
2023-01-29T09:43:06.340Z,-0.13
2023-01-29T09:44:06.314Z,-0.09
2023-01-29T09:45:06.302Z,-0.09
2023-01-29T09:46:06.336Z,-0.06
2023-01-29T09:47:06.293Z,-0.06
2023-01-29T09:48:06.271Z,-0.10
2023-01-29T09:49:06.334Z,-0.06
2023-01-29T09:50:06.249Z,-0.06
2023-01-29T09:51:06.238Z,0.00
2023-01-29T09:52:06.220Z,-0.04
2023-01-29T09:53:06.246Z,0.05
2023-01-29T09:54:06.197Z,0.00
2023-01-29T09:55:06.189Z,0.09
2023-01-29T09:56:06.164Z,0.15
2023-01-29T09:57:06.478Z,0.22
2023-01-29T09:58:06.154Z,0.20
2023-01-29T09:59:06.148Z,0.26
2023-01-29T10:00:06.125Z,0.29
2023-01-29T10:01:06.269Z,0.36
2023-01-29T10:02:06.207Z,0.30
2023-01-29T10:04:06.107Z,0.20
2023-01-29T10:05:06.060Z,0.15
2023-01-29T10:06:06.050Z,0.11
2023-01-29T10:07:06.051Z,0.14
2023-01-29T10:08:06.015Z,0.17
2023-01-29T10:09:06.244Z,0.23
2023-01-29T10:10:05.997Z,0.23
2023-01-29T10:11:05.988Z,0.32
2023-01-29T10:12:05.996Z,0.35
2023-01-29T10:13:05.963Z,0.40
2023-01-29T10:14:05.959Z,0.36
2023-01-29T10:15:05.928Z,0.41
2023-01-29T10:16:05.932Z,0.40
2023-01-29T10:17:06.049Z,0.43
2023-01-29T10:18:06.706Z,0.37
2023-01-29T10:19:05.890Z,0.37
2023-01-29T10:20:05.894Z,0.44
2023-01-29T10:21:05.868Z,0.43
2023-01-29T10:22:05.879Z,0.40
2023-01-29T10:23:05.843Z,0.44
2023-01-29T10:24:05.840Z,0.41
2023-01-29T10:25:05.831Z,0.40
2023-01-29T10:26:05.801Z,0.44
2023-01-29T10:27:05.802Z,0.44
2023-01-29T10:28:05.781Z,0.51
2023-01-29T10:29:05.772Z,0.55
2023-01-29T10:30:05.749Z,0.59
2023-01-29T10:31:05.811Z,0.60
2023-01-29T10:32:06.155Z,0.62
2023-01-29T10:33:05.730Z,0.50
2023-01-29T10:34:05.723Z,0.56
2023-01-29T10:35:05.692Z,0.63
2023-01-29T10:36:05.677Z,0.60
2023-01-29T10:37:05.792Z,0.59
2023-01-29T10:38:05.662Z,0.63
2023-01-29T10:39:05.664Z,0.67
2023-01-29T10:40:05.643Z,0.69
2023-01-29T10:41:05.890Z,0.67
2023-01-29T10:42:05.620Z,0.76
2023-01-29T10:43:05.604Z,0.74
2023-01-29T10:44:05.592Z,0.73
2023-01-29T10:45:05.589Z,0.76
2023-01-29T10:46:05.579Z,0.82
2023-01-29T10:47:05.599Z,0.87
2023-01-29T10:48:05.543Z,0.84
2023-01-29T10:49:05.530Z,0.87
2023-01-29T10:50:05.505Z,0.87
2023-01-29T10:51:05.502Z,0.90
2023-01-29T10:52:05.495Z,0.96
2023-01-29T10:53:05.474Z,0.99
2023-01-29T10:54:05.455Z,0.99
2023-01-29T10:55:05.467Z,1.00
2023-01-29T10:56:10.866Z,0.99
2023-01-29T10:57:06.455Z,1.00
2023-01-29T10:58:05.414Z,1.02
2023-01-29T10:59:05.450Z,1.03
2023-01-29T11:00:05.408Z,1.00
2023-01-29T11:01:05.387Z,0.94
2023-01-29T11:02:05.367Z,0.92
2023-01-29T11:03:10.109Z,0.85
2023-01-29T11:04:06.351Z,0.81
2023-01-29T11:05:05.326Z,0.82
2023-01-29T11:06:05.310Z,0.81
2023-01-29T11:07:05.310Z,0.81
2023-01-29T11:08:05.305Z,0.73
2023-01-29T11:09:05.290Z,0.81
2023-01-29T11:10:05.267Z,0.78
2023-01-29T11:11:05.284Z,0.78
2023-01-29T11:12:05.247Z,0.80
2023-01-29T11:13:05.242Z,0.84
2023-01-29T11:14:05.219Z,0.85
2023-01-29T11:15:05.216Z,0.85
2023-01-29T11:16:05.188Z,0.78
2023-01-29T11:17:05.292Z,0.80
2023-01-29T11:18:05.166Z,0.87
2023-01-29T11:19:05.162Z,0.96
2023-01-29T11:20:05.144Z,1.03
2023-01-29T11:21:05.143Z,1.10
2023-01-29T11:22:05.167Z,1.13
2023-01-29T11:23:06.757Z,1.16
2023-01-29T11:24:05.104Z,1.17
2023-01-29T11:25:05.088Z,1.23
2023-01-29T11:26:05.065Z,1.28
2023-01-29T11:27:05.067Z,1.41
2023-01-29T11:28:05.045Z,1.36
2023-01-29T11:29:05.036Z,1.31
2023-01-29T11:30:05.053Z,1.34
2023-01-29T11:31:05.043Z,1.34
2023-01-29T11:32:04.999Z,1.34
2023-01-29T11:33:04.984Z,1.42
2023-01-29T11:34:04.982Z,1.35
2023-01-29T11:35:05.183Z,1.31
2023-01-29T11:36:04.942Z,1.18
2023-01-29T11:37:04.954Z,1.13
2023-01-29T11:38:04.955Z,1.10
2023-01-29T11:39:04.912Z,1.13
2023-01-29T11:40:04.900Z,1.21
2023-01-29T11:41:04.889Z,1.26
2023-01-29T11:42:04.887Z,1.34
2023-01-29T11:43:04.862Z,1.38
2023-01-29T11:44:04.868Z,1.45
2023-01-29T11:45:04.843Z,1.48
2023-01-29T11:46:04.839Z,1.49
2023-01-29T11:47:04.829Z,1.49
2023-01-29T11:48:04.808Z,1.55
2023-01-29T11:49:14.433Z,1.55
2023-01-29T11:50:05.774Z,1.56
2023-01-29T11:51:06.458Z,1.52
2023-01-29T11:52:04.759Z,1.53
2023-01-29T11:53:04.744Z,1.60
2023-01-29T11:54:04.736Z,1.59
2023-01-29T11:55:04.733Z,1.60
2023-01-29T11:56:04.853Z,1.60
2023-01-29T11:57:04.913Z,1.62
2023-01-29T11:58:04.674Z,1.56
2023-01-29T11:59:04.684Z,1.59
2023-01-29T12:00:04.660Z,1.55
2023-01-29T12:01:04.667Z,1.64
2023-01-29T12:02:04.626Z,1.69
2023-01-29T12:03:04.617Z,1.74
2023-01-29T12:04:04.630Z,1.81
2023-01-29T12:05:04.606Z,1.73
2023-01-29T12:06:04.650Z,1.75
2023-01-29T12:07:04.596Z,1.80
2023-01-29T12:08:04.573Z,1.82
2023-01-29T12:09:04.545Z,1.77
2023-01-29T12:10:04.528Z,1.80
2023-01-29T12:11:04.528Z,1.80
2023-01-29T12:12:04.526Z,1.74
2023-01-29T12:13:04.517Z,1.73
2023-01-29T12:14:04.527Z,1.78
2023-01-29T12:15:04.476Z,1.85
2023-01-29T12:16:04.542Z,1.91
2023-01-29T12:17:04.468Z,1.85
2023-01-29T12:18:04.689Z,1.81
2023-01-29T12:19:04.419Z,1.78
2023-01-29T12:20:04.423Z,1.77
2023-01-29T12:21:04.408Z,1.81
2023-01-29T12:22:04.422Z,1.80
2023-01-29T12:23:04.388Z,1.78
2023-01-29T12:24:04.359Z,1.82
2023-01-29T12:25:04.361Z,1.78
2023-01-29T12:26:04.341Z,1.69
2023-01-29T12:27:04.351Z,1.69
2023-01-29T12:28:04.296Z,1.73
2023-01-29T12:29:04.301Z,1.80
2023-01-29T12:30:04.538Z,1.78
2023-01-29T12:31:04.353Z,1.78
2023-01-29T12:32:04.270Z,1.82
2023-01-29T12:33:04.241Z,1.75
2023-01-29T12:34:04.239Z,1.73
2023-01-29T12:35:04.229Z,1.64
2023-01-29T12:36:04.200Z,1.63
2023-01-29T12:37:04.206Z,1.66
2023-01-29T12:38:04.180Z,1.67
2023-01-29T12:39:04.181Z,1.62
2023-01-29T12:40:04.157Z,1.60
2023-01-29T12:41:04.164Z,1.63
2023-01-29T12:42:04.141Z,1.63
2023-01-29T12:43:04.123Z,1.73
2023-01-29T12:44:04.112Z,1.67
2023-01-29T12:45:04.103Z,1.67
2023-01-29T12:46:04.090Z,1.67
2023-01-29T12:47:04.155Z,1.73
2023-01-29T12:48:04.056Z,1.74
2023-01-29T12:49:04.067Z,1.73
2023-01-29T12:50:04.050Z,1.80
2023-01-29T12:51:04.024Z,1.89
2023-01-29T12:52:04.015Z,1.99
2023-01-29T12:53:04.013Z,2.01
2023-01-29T12:54:03.988Z,2.03
2023-01-29T12:55:03.983Z,1.99
2023-01-29T12:56:03.967Z,1.95
2023-01-29T12:57:03.982Z,1.93
2023-01-29T12:58:03.944Z,1.92
2023-01-29T12:59:03.924Z,1.92
2023-01-29T13:00:04.188Z,1.95
2023-01-29T13:01:04.981Z,1.95
2023-01-29T13:02:03.929Z,1.93
2023-01-29T13:03:03.925Z,1.99